Time;durP1;ratioP1;P1;durP2;ratioP2;P2;SDS_P1;SDS_P2;PMS_P1;PMS_P2;Temp;Humidity;BMP_temperature;BMP_pressure;BME280_temperature;BME280_humidity;BME280_pressure;Samples;Min_cycle;Max_cycle;Signal;HPM_P1;HPM_P2
2022/10/29 00:02:03;;;;;;;16.33;5.68;;;14.40;99.90;;;13.55;100.00;98096.53;5012247;28;20503;-75
2022/10/29 00:04:29;;;;;;;15.13;5.75;;;14.40;99.90;;;13.51;100.00;98095.44;5011786;28;20419;-75
2022/10/29 00:06:56;;;;;;;20.48;5.95;;;14.40;99.90;;;13.51;100.00;98092.78;5012130;28;20483;-75
2022/10/29 00:09:22;;;;;;;18.48;6.32;;;14.40;99.90;;;13.49;100.00;98084.25;5012192;28;20415;-75
2022/10/29 00:11:48;;;;;;;17.38;5.60;;;14.30;99.90;;;13.48;100.00;98087.16;5012193;28;20408;-75
2022/10/29 00:14:15;;;;;;;13.00;5.25;;;14.40;99.90;;;13.47;100.00;98089.00;5011668;28;20448;-75
2022/10/29 00:16:41;;;;;;;12.85;5.90;;;14.30;99.90;;;13.46;100.00;98089.25;5012001;28;20401;-75
2022/10/29 00:19:08;;;;;;;16.40;5.28;;;14.30;99.90;;;13.42;100.00;98077.53;5012162;28;20401;-75
2022/10/29 00:21:34;;;;;;;18.03;5.90;;;14.30;99.90;;;13.41;100.00;98075.91;5012009;28;20401;-75
2022/10/29 00:24:01;;;;;;;16.70;6.35;;;14.30;99.90;;;13.40;100.00;98068.97;5011518;28;20407;-75
2022/10/29 00:26:28;;;;;;;16.67;6.33;;;14.20;99.90;;;13.36;100.00;98074.03;5011776;28;20447;-75
2022/10/29 00:28:55;;;;;;;19.65;5.80;;;14.20;99.90;;;13.34;100.00;98077.97;5010684;28;20408;-75
2022/10/29 00:31:25;;;;;;;16.52;5.90;;;14.20;99.90;;;13.31;100.00;98078.47;5011783;28;20417;-75
2022/10/29 00:33:53;;;;;;;18.65;6.32;;;14.20;99.90;;;13.28;100.00;98079.78;5011387;28;20455;-75
2022/10/29 00:36:21;;;;;;;11.77;5.00;;;14.10;99.90;;;13.25;100.00;98074.16;5011628;28;20810;-75
2022/10/29 00:38:48;;;;;;;13.90;5.40;;;14.10;99.90;;;13.25;100.00;98077.63;5011718;28;20503;-75
2022/10/29 00:41:18;;;;;;;16.80;5.65;;;14.10;99.90;;;13.25;100.00;98077.63;5011689;28;20444;-76
2022/10/29 00:43:48;;;;;;;22.17;5.57;;;14.10;99.90;;;13.24;100.00;98076.00;5010878;28;20436;-75
2022/10/29 00:46:21;;;;;;;20.85;5.78;;;14.10;99.90;;;13.22;100.00;98078.13;5011477;28;20421;-75
2022/10/29 00:48:52;;;;;;;16.70;6.45;;;14.10;99.90;;;13.20;100.00;98077.56;5011487;28;20401;-75
2022/10/29 00:51:19;;;;;;;16.27;6.20;;;14.10;99.90;;;13.17;100.00;98088.69;5011543;28;20412;-75
2022/10/29 00:56:26;;;;;;;21.55;6.13;;;14.00;99.90;;;13.20;100.00;98082.09;5028732;28;20419;-73
2022/10/29 00:58:52;;;;;;;19.30;6.13;;;14.00;99.90;;;13.19;100.00;98083.94;5031044;28;20406;-73
2022/10/29 01:01:18;;;;;;;18.57;6.67;;;14.00;99.90;;;13.15;100.00;98085.50;5031135;28;20415;-73
2022/10/29 01:03:45;;;;;;;17.40;5.45;;;14.00;99.90;;;13.15;100.00;98081.00;5030396;28;20442;-73
2022/10/29 01:06:13;;;;;;;16.55;6.00;;;14.00;99.90;;;13.15;100.00;98077.53;5019894;28;20446;-73
2022/10/29 01:08:38;;;;;;;11.32;5.20;;;14.00;99.90;;;13.16;100.00;98081.78;5031041;28;20726;-73
2022/10/29 01:11:21;;;;;;;15.38;5.35;;;14.00;99.90;;;13.17;100.00;98084.19;5030722;28;20513;-72
2022/10/29 01:14:05;;;;;;;17.08;5.50;;;14.00;99.90;;;13.23;100.00;98084.25;5030378;28;20414;-73
2022/10/29 01:16:45;;;;;;;12.07;5.20;;;14.10;99.90;;;13.23;100.00;98076.28;5030625;28;20403;-73
2022/10/29 01:19:19;;;;;;;15.35;5.35;;;14.00;99.90;;;13.25;100.00;98066.97;5030808;28;20442;-73
2022/10/29 01:21:48;;;;;;;15.15;5.47;;;14.10;99.90;;;13.27;100.00;98072.06;5030732;28;20395;-73
2022/10/29 01:25:07;;;;;;;13.73;5.53;;;14.10;99.90;;;13.28;100.00;98066.50;5030366;28;20387;-73
2022/10/29 01:28:02;;;;;;;10.38;5.32;;;14.10;99.90;;;13.29;100.00;98060.13;5030537;28;20816;-73
2022/10/29 01:31:05;;;;;;;19.05;5.60;;;14.10;99.90;;;13.32;100.00;98064.13;5030492;28;20402;-73
2022/10/29 01:33:40;;;;;;;15.65;5.75;;;14.20;99.90;;;13.32;100.00;98056.16;5030166;28;20403;-73
2022/10/29 01:36:14;;;;;;;19.02;6.20;;;14.20;99.90;;;13.33;100.00;98055.09;5030297;28;20427;-73
2022/10/29 01:38:52;;;;;;;10.50;5.07;;;14.20;99.90;;;13.36;100.00;98049.28;5030492;28;20404;-73
2022/10/29 01:41:25;;;;;;;13.93;6.03;;;14.20;99.90;;;13.38;100.00;98063.13;5030460;28;20391;-73
2022/10/29 01:43:58;;;;;;;12.40;5.47;;;14.20;99.90;;;13.37;100.00;98062.34;5029996;28;20391;-73
2022/10/29 01:46:34;;;;;;;19.40;5.78;;;14.20;99.90;;;13.37;100.00;98054.34;5030152;28;20414;-72
2022/10/29 01:49:06;;;;;;;23.83;6.30;;;14.20;99.90;;;13.37;100.00;98049.03;5030195;28;20592;-73
2022/10/29 01:51:35;;;;;;;20.13;6.50;;;14.20;99.90;;;13.38;100.00;98047.19;5030464;28;20410;-73
2022/10/29 01:54:07;;;;;;;17.85;6.03;;;14.20;99.90;;;13.38;100.00;98055.16;5029855;28;20403;-73
2022/10/29 01:56:33;;;;;;;14.07;5.20;;;14.20;99.90;;;13.39;100.00;98040.78;5032175;28;20403;-73
2022/10/29 01:59:01;;;;;;;19.00;5.60;;;14.20;99.90;;;13.40;100.00;98043.19;5034432;28;20718;-73
2022/10/29 02:01:44;;;;;;;9.90;5.05;;;14.20;99.90;;;13.41;100.00;98036.81;5034355;28;20483;-73
2022/10/29 02:04:44;;;;;;;16.40;5.53;;;14.20;99.90;;;13.41;100.00;98036.03;5033864;28;20403;-73
2022/10/29 02:07:19;;;;;;;21.48;6.00;;;14.20;99.90;;;13.41;100.00;98031.50;5034212;28;20437;-73
2022/10/29 02:09:55;;;;;;;15.50;5.82;;;14.20;99.90;;;13.41;100.00;98028.03;5034218;28;20457;-73
2022/10/29 02:12:26;;;;;;;22.90;6.43;;;14.20;99.90;;;13.37;100.00;98025.09;5034188;28;20816;-73
2022/10/29 02:14:57;;;;;;;21.20;5.97;;;14.20;99.90;;;13.34;100.00;98027.44;5033635;28;20399;-73
2022/10/29 02:17:25;;;;;;;14.35;5.93;;;14.10;99.90;;;13.31;100.00;98018.13;5034143;28;20405;-73
2022/10/29 02:19:51;;;;;;;12.38;5.95;;;14.10;99.90;;;13.32;100.00;98017.06;5033898;28;20407;-73
2022/10/29 02:22:16;;;;;;;15.47;5.80;;;14.10;99.90;;;13.35;100.00;98013.09;5033951;28;20501;-72
2022/10/29 02:24:42;;;;;;;13.63;5.55;;;14.20;99.90;;;13.37;100.00;98011.81;5033226;28;21060;-73
2022/10/29 02:27:08;;;;;;;10.55;4.90;;;14.20;99.90;;;13.40;100.00;98008.63;5033825;28;20422;-72
2022/10/29 02:29:34;;;;;;;12.60;5.10;;;14.20;99.90;;;13.44;100.00;98012.41;5033934;28;20438;-72
2022/10/29 02:32:00;;;;;;;14.98;5.35;;;14.30;99.90;;;13.45;100.00;98014.00;5033758;28;20490;-73
2022/10/29 02:34:27;;;;;;;12.37;5.00;;;14.30;99.90;;;13.47;100.00;98006.56;5033303;28;20956;-73
2022/10/29 02:36:53;;;;;;;18.20;5.53;;;14.30;99.90;;;13.46;100.00;98004.13;5033674;28;20457;-73
2022/10/29 02:39:19;;;;;;;18.15;5.68;;;14.30;99.90;;;13.43;100.00;98005.47;5032471;28;20442;-72
2022/10/29 02:41:45;;;;;;;13.30;5.25;;;14.30;99.90;;;13.44;100.00;98004.41;5033563;28;20884;-73
2022/10/29 02:44:11;;;;;;;18.77;6.43;;;14.30;99.90;;;13.46;100.00;98004.13;5033206;28;20407;-73
2022/10/29 02:46:38;;;;;;;14.05;4.88;;;14.30;99.90;;;13.45;100.00;97998.03;5033351;28;20411;-73
2022/10/29 02:49:04;;;;;;;11.20;5.53;;;14.30;99.90;;;13.46;100.00;97993.50;5033411;28;20485;-73
2022/10/29 02:51:31;;;;;;;18.48;5.63;;;14.30;99.90;;;13.47;100.00;97992.44;5032238;28;20509;-73
2022/10/29 02:53:57;;;;;;;16.85;5.35;;;14.30;99.90;;;13.50;100.00;97995.41;5032897;28;20453;-71
2022/10/29 02:56:23;;;;;;;13.73;5.60;;;14.30;99.90;;;13.53;100.00;97989.56;5033285;28;20788;-73
2022/10/29 02:58:49;;;;;;;15.02;6.07;;;14.30;99.90;;;13.55;100.00;97992.78;5033317;28;20903;-73
2022/10/29 03:01:15;;;;;;;16.35;6.18;;;14.40;99.90;;;13.53;100.00;97978.94;5033305;28;20411;-73
2022/10/29 03:03:41;;;;;;;13.07;4.90;;;14.30;99.90;;;13.52;100.00;97987.19;5032827;28;20411;-72
2022/10/29 03:06:12;;;;;;;21.65;6.80;;;14.30;99.90;;;13.51;100.00;97985.59;5032948;28;20423;-73
2022/10/29 03:08:40;;;;;;;13.38;5.25;;;14.30;99.90;;;13.49;100.00;97980.50;5033007;28;20478;-73
2022/10/29 03:11:05;;;;;;;17.42;5.85;;;14.30;99.90;;;13.48;100.00;97988.75;5033063;28;20438;-73
2022/10/29 03:13:31;;;;;;;18.08;5.93;;;14.30;99.90;;;13.47;100.00;97990.59;5032656;28;20764;-73
2022/10/29 03:15:57;;;;;;;23.60;6.03;;;14.30;99.90;;;13.43;100.00;97988.72;5032956;28;20410;-72
2022/10/29 03:18:23;;;;;;;11.15;5.20;;;14.30;99.90;;;13.41;100.00;97988.97;5032962;28;20403;-72
2022/10/29 03:20:49;;;;;;;13.88;5.22;;;14.20;99.90;;;13.41;100.00;98002.25;5032991;28;20469;-73
2022/10/29 03:23:15;;;;;;;14.73;5.63;;;14.20;99.90;;;13.40;100.00;98003.31;5032391;28;20407;-72
2022/10/29 03:25:42;;;;;;;13.07;4.97;;;14.20;99.90;;;13.40;100.00;98005.97;5032611;28;20407;-72
2022/10/29 03:28:08;;;;;;;14.43;5.60;;;14.20;99.90;;;13.40;100.00;98005.16;5032646;28;20473;-73
2022/10/29 03:30:34;;;;;;;12.45;5.35;;;14.20;99.90;;;13.38;100.00;98005.41;5032740;28;20407;-73
2022/10/29 03:33:00;;;;;;;15.32;5.13;;;14.20;99.90;;;13.38;100.00;97996.66;5032236;28;20403;-73
2022/10/29 03:35:26;;;;;;;19.93;5.83;;;14.20;99.90;;;13.38;100.00;97992.13;5032546;28;20399;-72
2022/10/29 03:37:52;;;;;;;18.08;6.45;;;14.20;99.90;;;13.35;100.00;97997.16;5032603;28;20414;-72
2022/10/29 03:40:19;;;;;;;15.35;6.05;;;14.20;99.90;;;13.30;100.00;97989.94;5032581;28;20439;-73
2022/10/29 03:42:46;;;;;;;18.95;5.78;;;14.10;99.90;;;13.29;100.00;97991.00;5032221;28;20865;-73
2022/10/29 03:45:13;;;;;;;19.63;5.67;;;14.10;99.90;;;13.27;100.00;97987.78;5032301;28;20403;-73
2022/10/29 03:47:39;;;;;;;18.65;6.15;;;14.10;99.90;;;13.24;100.00;97988.28;5032275;28;20506;-73
2022/10/29 03:50:06;;;;;;;20.42;6.13;;;14.10;99.90;;;13.18;100.00;97990.09;5032466;28;20435;-73
2022/10/29 03:52:32;;;;;;;29.30;7.18;;;14.00;99.90;;;13.15;100.00;97987.97;5032145;28;20406;-73
2022/10/29 03:54:58;;;;;;;13.00;5.63;;;14.00;99.90;;;13.14;100.00;97994.31;5031726;28;20446;-73
2022/10/29 03:57:24;;;;;;;15.37;6.07;;;14.00;99.90;;;13.16;100.00;97994.06;5032144;28;20403;-73
2022/10/29 03:59:51;;;;;;;13.68;5.30;;;14.00;99.90;;;13.18;100.00;97989.28;5032219;28;20434;-72
2022/10/29 04:02:17;;;;;;;9.70;5.40;;;14.00;99.90;;;13.20;100.00;97987.19;5032148;28;20434;-73
2022/10/29 04:04:43;;;;;;;19.95;6.30;;;14.00;99.90;;;13.22;100.00;97995.72;5031585;28;20438;-72
2022/10/29 04:07:08;;;;;;;18.00;6.27;;;14.00;99.90;;;13.23;100.00;97991.97;5032003;28;20790;-73
2022/10/29 04:09:34;;;;;;;15.57;5.83;;;14.00;99.90;;;13.22;100.00;98001.03;5032051;28;20414;-73
2022/10/29 04:12:01;;;;;;;12.27;5.20;;;14.00;99.90;;;13.23;100.00;97994.66;5031976;28;20438;-72
2022/10/29 04:14:27;;;;;;;13.18;5.53;;;14.10;99.90;;;13.25;100.00;98003.19;5031436;28;20399;-72
2022/10/29 04:16:54;;;;;;;13.48;5.45;;;14.10;99.90;;;13.25;100.00;97995.19;5031765;28;20885;-73
2022/10/29 04:19:20;;;;;;;15.32;5.57;;;14.10;99.90;;;13.25;100.00;97997.06;5031208;28;20406;-73
2022/10/29 04:21:46;;;;;;;15.47;6.10;;;14.10;99.90;;;13.22;100.00;97995.72;5031778;28;20411;-72
2022/10/29 04:24:12;;;;;;;14.18;5.47;;;14.00;99.90;;;13.20;100.00;97989.84;5031347;28;20446;-73
2022/10/29 04:26:38;;;;;;;15.07;6.18;;;14.00;99.90;;;13.18;100.00;97991.94;5031533;28;20784;-73
2022/10/29 04:29:04;;;;;;;16.75;6.35;;;14.00;99.90;;;13.15;100.00;97987.97;5031607;28;20415;-72
2022/10/29 04:31:29;;;;;;;11.23;5.50;;;14.00;99.90;;;13.12;100.00;97983.09;5031497;28;20494;-72
2022/10/29 04:33:57;;;;;;;17.30;6.75;;;14.00;99.90;;;13.09;100.00;97988.09;5031012;28;20605;-73
2022/10/29 04:36:23;;;;;;;22.13;6.50;;;13.90;99.90;;;13.06;100.00;97989.44;5031425;28;20477;-73
2022/10/29 04:38:49;;;;;;;15.00;6.07;;;13.90;99.90;;;13.01;100.00;97988.56;5031522;28;20537;-73
2022/10/29 04:41:15;;;;;;;14.13;6.30;;;13.80;99.90;;;12.98;100.00;97983.78;5031502;28;20408;-73
2022/10/29 04:43:41;;;;;;;14.93;5.67;;;13.80;99.90;;;12.98;100.00;97989.09;5031067;28;20399;-73
2022/10/29 04:46:08;;;;;;;13.10;5.97;;;13.80;99.90;;;12.95;100.00;98001.00;5031081;28;20407;-73
2022/10/29 04:48:34;;;;;;;20.15;6.28;;;13.80;99.90;;;12.93;100.00;97987.16;5031300;28;20434;-74
2022/10/29 04:51:02;;;;;;;13.52;6.05;;;13.80;99.90;;;12.93;100.00;97994.34;5031274;28;20412;-74
2022/10/29 04:53:28;;;;;;;12.68;6.20;;;13.70;99.90;;;12.88;100.00;97999.59;5030611;28;20499;-74
2022/10/29 04:55:59;;;;;;;18.90;5.80;;;13.70;99.90;;;12.84;100.00;97991.34;5030869;28;20468;-73
2022/10/29 04:58:25;;;;;;;16.58;6.13;;;13.70;99.90;;;12.82;100.00;97996.09;5031140;28;20823;-74
2022/10/29 05:00:51;;;;;;;17.75;5.93;;;13.70;99.90;;;12.76;100.00;97991.78;5030969;28;20402;-74
2022/10/29 05:03:17;;;;;;;14.32;5.85;;;13.60;99.90;;;12.71;100.00;97997.84;5030489;28;20898;-73
2022/10/29 05:05:43;;;;;;;17.30;6.22;;;13.60;99.90;;;12.69;100.00;98001.81;5030845;28;20485;-74
2022/10/29 05:08:11;;;;;;;22.80;6.57;;;13.50;99.90;;;12.68;100.00;97997.53;5030799;28;20425;-74
2022/10/29 05:10:38;;;;;;;15.27;6.15;;;13.50;99.90;;;12.61;100.00;97996.94;5030993;28;20403;-74
2022/10/29 05:13:09;;;;;;;15.75;6.47;;;13.50;99.90;;;12.62;100.00;97998.53;5030445;28;20399;-74
2022/10/29 05:15:36;;;;;;;19.45;6.80;;;13.50;99.90;;;12.61;100.00;97997.75;5030682;28;20904;-74
2022/10/29 05:18:02;;;;;;;19.63;6.30;;;13.50;99.90;;;12.58;100.00;98002.72;5030799;28;20435;-74
2022/10/29 05:20:29;;;;;;;21.90;6.78;;;13.40;99.90;;;12.52;100.00;97987.81;5030759;28;20807;-74
2022/10/29 05:22:58;;;;;;;18.92;6.20;;;13.40;99.90;;;12.46;100.00;97999.41;5030402;28;20888;-73
2022/10/29 05:25:26;;;;;;;17.13;6.78;;;13.30;99.90;;;12.43;100.00;97990.09;5030598;28;20893;-74
2022/10/29 05:28:00;;;;;;;19.60;6.55;;;13.30;99.90;;;12.40;100.00;97993.25;5030594;28;20423;-73
2022/10/29 05:30:26;;;;;;;13.18;5.50;;;13.30;99.90;;;12.31;100.00;97997.38;5029646;28;20777;-74
2022/10/29 05:32:52;;;;;;;19.33;7.20;;;13.20;99.90;;;12.29;100.00;97994.16;5030148;28;20415;-74
2022/10/29 05:35:18;;;;;;;14.63;6.45;;;13.20;99.90;;;12.23;100.00;97989.84;5030403;28;20557;-74
2022/10/29 05:37:50;;;;;;;15.85;6.00;;;13.10;99.90;;;12.23;100.00;97989.84;5030486;28;20435;-74
2022/10/29 05:40:16;;;;;;;15.70;6.03;;;13.10;99.90;;;12.22;100.00;97989.03;5029204;28;20444;-73
2022/10/29 05:42:44;;;;;;;16.40;6.80;;;13.10;99.90;;;12.22;100.00;97991.69;5030113;28;20414;-74
2022/10/29 05:45:10;;;;;;;19.40;6.45;;;13.10;99.90;;;12.23;100.00;97989.84;5030173;28;20490;-75
2022/10/29 05:47:36;;;;;;;14.70;5.85;;;13.10;99.90;;;12.16;100.00;97999.84;5030350;28;20449;-75
2022/10/29 05:50:03;;;;;;;21.87;6.83;;;13.10;99.90;;;12.16;100.00;97990.03;5030355;28;20494;-73
2022/10/29 05:52:29;;;;;;;19.73;6.43;;;13.00;99.90;;;12.17;100.00;97999.59;5030208;28;20439;-76
2022/10/29 05:54:55;;;;;;;14.48;6.50;;;13.00;99.90;;;12.08;100.00;97995.75;5029717;28;20498;-74
2022/10/29 05:57:21;;;;;;;10.93;5.68;;;13.00;99.90;;;12.05;100.00;97990.13;5030438;28;20958;-74
2022/10/29 05:59:48;;;;;;;20.60;6.68;;;13.00;99.90;;;12.08;100.00;97987.00;5030207;28;20857;-76
2022/10/29 06:02:14;;;;;;;19.60;6.63;;;13.00;99.90;;;12.03;100.00;97996.47;5020094;28;20447;-75
2022/10/29 06:04:40;;;;;;;14.23;6.07;;;12.90;99.90;;;12.02;100.00;97999.41;5007513;28;20459;-75
2022/10/29 06:07:05;;;;;;;19.15;6.70;;;12.90;99.90;;;12.01;100.00;98006.56;5002295;28;20422;-74
2022/10/29 06:09:32;;;;;;;12.55;5.78;;;12.90;99.90;;;11.99;100.00;97998.03;4990920;28;20497;-74
2022/10/29 06:11:58;;;;;;;17.25;6.20;;;12.90;99.90;;;11.98;100.00;97995.63;5009925;28;20758;-73
2022/10/29 06:14:24;;;;;;;16.58;6.13;;;12.90;99.90;;;11.96;100.00;98001.16;5009700;28;20416;-74
2022/10/29 06:16:51;;;;;;;19.10;6.75;;;12.80;99.90;;;11.97;100.00;98005.44;5010249;28;20412;-73
2022/10/29 06:19:17;;;;;;;27.00;6.47;;;12.90;99.90;;;11.93;100.00;98006.16;5010275;28;20882;-73
2022/10/29 06:21:43;;;;;;;15.00;6.60;;;12.80;99.90;;;11.91;100.00;98001.09;5010415;28;20404;-74
2022/10/29 06:24:09;;;;;;;14.93;6.05;;;12.90;99.90;;;11.91;100.00;98006.41;5009788;28;20413;-73
2022/10/29 06:26:36;;;;;;;12.38;6.13;;;12.80;99.90;;;11.91;100.00;98010.91;5010215;28;20438;-74
2022/10/29 06:29:02;;;;;;;19.70;6.80;;;12.80;99.90;;;11.91;100.00;98017.00;5010249;28;20408;-74
2022/10/29 06:31:28;;;;;;;17.30;6.90;;;12.80;99.90;;;11.92;100.00;98009.88;5010315;28;20408;-74
2022/10/29 06:33:55;;;;;;;15.10;6.30;;;12.80;99.90;;;11.91;100.00;98010.91;5009832;28;20404;-73
2022/10/29 06:36:21;;;;;;;15.95;6.60;;;12.80;99.90;;;11.89;100.00;98008.50;5010177;28;20408;-75
2022/10/29 06:38:47;;;;;;;21.60;6.93;;;12.80;99.90;;;11.92;100.00;98007.22;5010249;28;20802;-73
2022/10/29 06:41:13;;;;;;;12.70;6.00;;;12.80;99.90;;;11.90;100.00;98006.66;5010132;28;20456;-75
2022/10/29 06:43:39;;;;;;;12.68;6.22;;;12.80;99.90;;;11.92;100.00;98004.56;5013259;28;20401;-75
2022/10/29 06:46:05;;;;;;;16.05;6.22;;;12.80;99.90;;;11.95;100.00;98007.50;5009447;28;20442;-76
2022/10/29 06:48:31;;;;;;;25.00;6.33;;;12.80;99.90;;;11.93;100.00;97999.00;5000204;28;20514;-76
2022/10/29 06:50:59;;;;;;;16.13;6.05;;;12.80;99.90;;;11.94;100.00;98000.63;5011010;28;20405;-76
2022/10/29 06:53:26;;;;;;;15.60;5.82;;;12.80;99.90;;;11.95;100.00;98004.84;5008241;28;20914;-77
2022/10/29 06:55:52;;;;;;;21.98;6.47;;;12.80;99.90;;;11.98;100.00;97999.06;5047823;22;20440;-75
2022/10/29 06:58:19;;;;;;;19.38;6.03;;;12.80;99.90;;;12.00;100.00;97999.63;5039383;28;20404;-76
2022/10/29 07:00:46;;;;;;;15.82;6.28;;;12.90;99.90;;;12.00;100.00;97997.00;5035710;28;20419;-86
2022/10/29 07:03:13;;;;;;;14.18;6.50;;;12.90;99.90;;;12.01;100.00;98006.56;5035700;28;20857;-78
2022/10/29 07:05:39;;;;;;;17.02;6.88;;;12.90;99.90;;;12.02;100.00;98000.22;5046311;28;20428;-80
2022/10/29 07:08:07;;;;;;;13.88;6.70;;;12.90;99.90;;;12.07;100.00;97998.66;5048281;28;20516;-79
2022/10/29 07:10:33;;;;;;;19.35;6.63;;;12.90;99.90;;;12.11;100.00;98007.72;5043871;28;20814;-79
2022/10/29 07:12:59;;;;;;;15.05;6.63;;;13.00;99.90;;;12.15;100.00;98006.19;5043153;28;20444;-80
2022/10/29 07:15:26;;;;;;;15.33;6.20;;;13.00;99.90;;;12.18;100.00;98005.72;5051145;28;20413;-80
2022/10/29 07:17:57;;;;;;;15.10;6.57;;;13.00;99.90;;;12.21;100.00;98010.50;5051537;28;20408;-80
2022/10/29 07:20:24;;;;;;;19.10;7.15;;;13.10;99.90;;;12.23;100.00;98011.88;5051300;28;20413;-80
2022/10/29 07:22:50;;;;;;;21.50;8.10;;;13.10;99.90;;;12.24;100.00;98007.38;5050894;28;20432;-80
2022/10/29 07:25:18;;;;;;;20.83;6.72;;;13.10;99.90;;;12.28;100.00;98016.44;5051320;28;20398;-81
2022/10/29 07:27:44;;;;;;;21.55;7.32;;;13.10;99.90;;;12.28;100.00;98013.78;5052162;28;20943;-80
2022/10/29 07:30:11;;;;;;;15.43;6.82;;;13.10;99.90;;;12.32;100.00;98020.22;5052639;28;20429;-80
2022/10/29 07:32:37;;;;;;;16.50;7.10;;;13.10;99.90;;;12.35;100.00;98020.53;5051163;28;20402;-81
2022/10/29 07:35:03;;;;;;;16.80;6.40;;;13.20;99.90;;;12.37;100.00;98010.47;5052039;28;20441;-81
2022/10/29 07:37:29;;;;;;;14.20;6.70;;;13.20;99.90;;;12.45;100.00;98021.69;5052355;28;20871;-80
2022/10/29 07:39:55;;;;;;;13.77;6.07;;;13.30;99.90;;;12.53;100.00;98022.06;5052397;28;20496;-81
2022/10/29 07:42:23;;;;;;;17.67;6.90;;;13.40;99.90;;;12.59;100.00;98021.09;5052346;28;20397;-82
2022/10/29 07:44:49;;;;;;;15.55;7.20;;;13.40;99.90;;;12.66;100.00;98024.34;5021354;28;20406;-82
2022/10/29 07:47:16;;;;;;;17.48;6.03;;;13.50;99.90;;;12.76;100.00;98021.81;5019861;28;20419;-82
2022/10/29 07:49:42;;;;;;;14.90;6.60;;;13.60;99.90;;;12.87;100.00;98027.22;5021209;28;20404;-82
2022/10/29 07:52:11;;;;;;;12.75;5.97;;;13.60;99.90;;;12.98;100.00;98028.94;5021101;28;20431;-82
2022/10/29 07:54:37;;;;;;;11.88;4.95;;;13.80;99.90;;;13.09;100.00;98031.44;5019046;28;20960;-76
2022/10/29 07:57:03;;;;;;;14.17;6.10;;;13.90;99.90;;;13.21;100.00;98033.19;5022377;28;20486;-82
2022/10/29 07:59:31;;;;;;;13.45;5.95;;;14.00;99.90;;;13.32;100.00;98033.03;5012101;28;20401;-80
2022/10/29 08:02:03;;;;;;;19.13;6.70;;;14.10;99.90;;;13.38;100.00;98039.22;5017490;28;20923;-80
2022/10/29 08:04:29;;;;;;;15.73;6.32;;;14.20;99.90;;;13.56;100.00;98036.94;5016998;28;20401;-81
2022/10/29 08:06:55;;;;;;;13.17;5.27;;;14.30;99.90;;;13.72;100.00;98029.09;5012303;28;20597;-80
2022/10/29 08:09:21;;;;;;;13.80;5.83;;;14.50;99.90;;;13.97;100.00;98034.59;5012621;28;20835;-77
2022/10/29 08:11:47;;;;;;;17.85;5.70;;;14.70;99.90;;;14.13;100.00;98032.84;5024685;28;20990;-81
2022/10/29 08:14:13;;;;;;;16.40;5.68;;;14.80;99.90;;;14.30;100.00;98034.25;5021122;28;20511;-83
2022/10/29 08:16:40;;;;;;;9.77;4.72;;;15.00;99.90;;;14.51;100.00;98029.06;5043729;28;20405;-86
2022/10/29 08:19:06;;;;;;;15.17;4.63;;;15.20;99.90;;;14.69;100.00;98026.72;5024511;28;20407;-87
2022/10/29 08:21:32;;;;;;;12.35;4.72;;;15.40;99.90;;;14.87;100.00;98036.09;5027955;28;20437;-86
2022/10/29 08:23:58;;;;;;;9.15;4.10;;;15.50;99.90;;;15.02;100.00;98030.81;5039436;28;20486;-86
2022/10/29 08:26:24;;;;;;;10.50;4.70;;;15.70;99.90;;;15.19;100.00;98033.22;5048363;28;20454;-86
2022/10/29 08:28:50;;;;;;;13.85;4.45;;;15.80;99.90;;;15.33;100.00;98034.34;5052444;28;20408;-85
2022/10/29 08:31:16;;;;;;;15.60;4.95;;;16.00;99.90;;;15.34;100.00;98029.78;5053179;28;20500;-86
2022/10/29 08:33:43;;;;;;;12.18;4.78;;;16.10;99.90;;;15.46;100.00;98027.66;5051728;28;20902;-87
2022/10/29 08:36:09;;;;;;;13.82;4.38;;;16.10;99.90;;;15.67;100.00;98031.16;5066990;28;20413;-87
2022/10/29 08:38:35;;;;;;;13.55;5.05;;;16.30;99.90;;;15.65;100.00;98028.75;5042156;28;20891;-86
2022/10/29 08:41:22;;;;;;;10.02;4.53;;;16.30;99.90;;;15.77;100.00;98026.63;5044414;28;20492;-86
2022/10/29 08:44:21;;;;;;;13.87;4.87;;;16.40;99.90;;;15.81;100.00;98025.00;5028451;28;20425;-86
2022/10/29 08:46:53;;;;;;;12.80;5.40;;;16.40;99.90;;;15.83;100.00;98022.88;5027548;28;20764;-86
2022/10/29 08:49:28;;;;;;;12.45;5.05;;;16.50;99.90;;;15.90;100.00;98027.13;5041799;28;20406;-86
2022/10/29 08:52:01;;;;;;;11.80;5.13;;;16.50;99.90;;;15.93;100.00;98024.75;5049673;28;20412;-86
2022/10/29 08:54:31;;;;;;;13.95;4.93;;;16.60;99.90;;;15.95;100.00;98025.25;5014148;28;20929;-86
2022/10/29 08:57:05;;;;;;;15.02;4.90;;;16.60;99.90;;;15.98;100.00;98023.91;5033517;28;20407;-82
2022/10/29 08:59:40;;;;;;;13.70;5.05;;;16.60;99.90;;;16.04;100.00;98026.31;5046668;28;20981;-83
2022/10/29 09:02:14;;;;;;;16.80;5.18;;;16.70;99.90;;;16.18;100.00;98035.34;5032418;28;20418;-82
2022/10/29 09:04:41;;;;;;;17.57;5.43;;;16.80;99.90;;;16.21;100.00;98032.16;5021787;28;20425;-82
2022/10/29 09:07:38;;;;;;;9.75;5.00;;;16.80;99.90;;;16.27;100.00;98038.28;5027424;28;20425;-82
2022/10/29 09:10:12;;;;;;;18.70;5.70;;;16.90;99.90;;;16.33;100.00;98023.81;5034968;28;20403;-82
2022/10/29 09:13:13;;;;;;;14.43;5.20;;;16.90;99.90;;;16.41;100.00;98028.59;5024823;28;20420;-82
2022/10/29 09:15:53;;;;;;;28.17;6.33;;;17.00;99.90;;;16.50;100.00;98036.88;5044536;28;20409;-81
2022/10/29 09:18:33;;;;;;;9.85;5.00;;;17.10;99.90;;;16.60;100.00;98031.50;5022566;28;20421;-81
2022/10/29 09:21:13;;;;;;;10.60;4.30;;;17.10;99.90;;;16.65;100.00;98023.47;5018162;28;20405;-81
2022/10/29 09:24:04;;;;;;;15.40;5.53;;;17.20;99.90;;;16.74;100.00;98024.50;5024550;28;20410;-81
2022/10/29 09:26:33;;;;;;;14.10;5.03;;;17.30;99.90;;;16.83;100.00;98022.88;5025895;28;20405;-78
2022/10/29 09:29:30;;;;;;;18.27;4.87;;;17.40;99.90;;;16.96;100.00;98021.44;5030344;28;20398;-78
2022/10/29 09:32:01;;;;;;;12.80;4.72;;;17.50;99.90;;;17.01;100.00;98008.84;5025337;28;20472;-79
2022/10/29 09:34:32;;;;;;;15.90;4.50;;;17.60;99.90;;;17.15;100.00;98008.22;5018673;28;20429;-81
2022/10/29 09:36:59;;;;;;;17.20;4.00;;;17.70;99.90;;;17.24;100.00;98009.22;5028029;28;20794;-82
2022/10/29 09:39:32;;;;;;;15.27;4.47;;;17.80;99.90;;;17.32;100.00;98003.28;5027392;28;20907;-80
2022/10/29 09:42:00;;;;;;;16.38;4.80;;;17.90;99.90;;;17.51;100.00;98006.09;5027470;28;20885;-81
2022/10/29 09:44:38;;;;;;;8.07;3.95;;;18.00;99.90;;;17.58;100.00;98004.69;5029379;28;20430;-82
2022/10/29 09:47:17;;;;;;;24.53;4.90;;;18.10;99.90;;;17.60;100.00;98010.53;5028157;28;20415;-83
2022/10/29 09:50:03;;;;;;;12.30;4.55;;;18.10;99.90;;;17.66;100.00;98004.13;5028337;28;20391;-83
2022/10/29 09:52:34;;;;;;;14.53;4.60;;;18.20;99.90;;;17.71;100.00;98005.94;5036280;28;20472;-82
2022/10/29 09:55:02;;;;;;;9.50;4.15;;;18.30;99.90;;;17.83;100.00;98002.88;5021051;28;20478;-81
2022/10/29 09:57:33;;;;;;;13.52;4.10;;;18.30;99.90;;;17.92;100.00;98004.66;5029652;28;20399;-76
2022/10/29 10:00:01;;;;;;;12.40;4.25;;;18.50;99.90;;;18.01;100.00;98002.97;5028752;28;20904;-77
2022/10/29 10:02:36;;;;;;;12.63;4.78;;;18.50;99.90;;;18.10;100.00;98005.84;5031571;28;20490;-78
2022/10/29 10:05:11;;;;;;;13.13;4.38;;;18.60;99.90;;;18.26;100.00;98007.28;5022019;28;20459;-76
2022/10/29 10:07:38;;;;;;;10.18;4.47;;;18.70;99.90;;;18.34;100.00;98006.66;5031507;28;20428;-79
2022/10/29 10:10:11;;;;;;;10.50;4.07;;;18.80;99.90;;;18.43;100.00;98007.59;5009836;28;20405;-80
2022/10/29 10:12:46;;;;;;;22.48;5.65;;;18.90;99.90;;;18.42;100.00;98000.63;5020824;28;20403;-77
2022/10/29 10:15:29;;;;;;;17.40;5.13;;;19.00;99.90;;;18.46;98.33;97993.63;5041872;28;20416;-80
2022/10/29 10:17:59;;;;;;;21.60;4.82;;;19.00;99.90;;;18.49;97.64;97998.38;5021890;28;20560;-77